sensor_id;sensor_type;location;lat;lon;timestamp;pressure;altitude;pressure_sealevel;temperature;humidity
74435;BME280;62867;52.038;29.256;2023-07-20T00:00:14;1016.3;;;18.3;64.7
74435;BME280;62867;52.038;29.256;2023-07-20T00:05:20;1016.2;;;18.3;64.6
74435;BME280;62867;52.038;29.256;2023-07-20T00:11:02;1016.2;;;18.3;64.5
74435;BME280;62867;52.038;29.256;2023-07-20T00:15:08;1016.2;;;18.3;64.4
74435;BME280;62867;52.038;29.256;2023-07-20T00:20:32;1016.2;;;18.3;64
74435;BME280;62867;52.038;29.256;2023-07-20T00:25:48;1016.2;;;18.3;63.9
74435;BME280;62867;52.038;29.256;2023-07-20T00:30:48;1016.2;;;18.2;63.9
74435;BME280;62867;52.038;29.256;2023-07-20T00:35:08;1016.2;;;18.2;64
74435;BME280;62867;52.038;29.256;2023-07-20T00:40:14;1016.2;;;18.1;63.8
74435;BME280;62867;52.038;29.256;2023-07-20T00:46:02;1016.2;;;18;63.7
74435;BME280;62867;52.038;29.256;2023-07-20T00:51:02;1016.2;;;17.9;63.4
74435;BME280;62867;52.038;29.256;2023-07-20T00:55:32;1016.2;;;17.8;63.7
74435;BME280;62867;52.038;29.256;2023-07-20T01:00:28;1016.2;;;17.6;63.7
74435;BME280;62867;52.038;29.256;2023-07-20T01:06:04;1016.1;;;17.5;63.5
74435;BME280;62867;52.038;29.256;2023-07-20T01:10:49;1016.1;;;17.4;63.7
74435;BME280;62867;52.038;29.256;2023-07-20T01:15:08;1016.1;;;17.3;63.8
74435;BME280;62867;52.038;29.256;2023-07-20T01:20:30;1015.9;;;17.3;64.1
74435;BME280;62867;52.038;29.256;2023-07-20T01:25:12;1015.9;;;17.2;64.2
74435;BME280;62867;52.038;29.256;2023-07-20T01:31:13;1016;;;17.1;64.3
74435;BME280;62867;52.038;29.256;2023-07-20T01:35:22;1016;;;17.1;64.4
74435;BME280;62867;52.038;29.256;2023-07-20T01:41:02;1016;;;17;64.5
74435;BME280;62867;52.038;29.256;2023-07-20T01:45:08;1015.9;;;16.9;64.5
74435;BME280;62867;52.038;29.256;2023-07-20T01:51:02;1015.9;;;16.8;64.6
74435;BME280;62867;52.038;29.256;2023-07-20T01:55:42;1016;;;16.7;64.7
74435;BME280;62867;52.038;29.256;2023-07-20T02:00:48;1016;;;16.7;64.8
74435;BME280;62867;52.038;29.256;2023-07-20T02:05:46;1016;;;16.7;65
74435;BME280;62867;52.038;29.256;2023-07-20T02:11:02;1016;;;16.7;65.3
74435;BME280;62867;52.038;29.256;2023-07-20T02:15:48;1016;;;16.8;65.5
74435;BME280;62867;52.038;29.256;2023-07-20T02:20:48;1016.1;;;16.9;65.6
74435;BME280;62867;52.038;29.256;2023-07-20T02:26:02;1016.1;;;16.9;65.6
74435;BME280;62867;52.038;29.256;2023-07-20T02:30:08;1016.1;;;17;65.4
74435;BME280;62867;52.038;29.256;2023-07-20T02:36:02;1016.1;;;17;65.5
74435;BME280;62867;52.038;29.256;2023-07-20T02:41:02;1016.1;;;17;65.5
74435;BME280;62867;52.038;29.256;2023-07-20T02:45:40;1016;;;17;65.5
74435;BME280;62867;52.038;29.256;2023-07-20T02:50:46;1016;;;17;65.5
74435;BME280;62867;52.038;29.256;2023-07-20T02:55:14;1015.9;;;17;65.5
74435;BME280;62867;52.038;29.256;2023-07-20T03:01:00;1015.9;;;17.1;65.4
74435;BME280;62867;52.038;29.256;2023-07-20T03:05:44;1015.9;;;17.2;65.5
74435;BME280;62867;52.038;29.256;2023-07-20T03:10:48;1015.9;;;17.3;65.4
74435;BME280;62867;52.038;29.256;2023-07-20T03:15:42;1015.8;;;17.3;65.4
74435;BME280;62867;52.038;29.256;2023-07-20T03:20:26;1015.8;;;17.4;65.5
74435;BME280;62867;52.038;29.256;2023-07-20T03:25:46;1015.9;;;17.6;65.4
74435;BME280;62867;52.038;29.256;2023-07-20T03:30:26;1015.8;;;18;65
74435;BME280;62867;52.038;29.256;2023-07-20T03:36:02;1015.9;;;18.4;64
74435;BME280;62867;52.038;29.256;2023-07-20T03:40:34;1015.8;;;18.9;63.3
74435;BME280;62867;52.038;29.256;2023-07-20T03:46:00;1015.8;;;19.2;62.6
74435;BME280;62867;52.038;29.256;2023-07-20T03:50:28;1015.8;;;19.4;62.2
74435;BME280;62867;52.038;29.256;2023-07-20T03:55:14;1015.8;;;19.4;62.3
74435;BME280;62867;52.038;29.256;2023-07-20T04:00:20;1015.8;;;19.6;61.9
74435;BME280;62867;52.038;29.256;2023-07-20T04:05:26;1015.8;;;19.9;61.7
74435;BME280;62867;52.038;29.256;2023-07-20T04:10:32;1015.8;;;20.1;60.5
74435;BME280;62867;52.038;29.256;2023-07-20T04:15:48;1015.8;;;20.3;59.5
74435;BME280;62867;52.038;29.256;2023-07-20T04:21:02;1015.8;;;20.6;57.7
74435;BME280;62867;52.038;29.256;2023-07-20T04:25:28;1015.8;;;20.8;56.7
74435;BME280;62867;52.038;29.256;2023-07-20T04:30:28;1015.8;;;21;55.8
74435;BME280;62867;52.038;29.256;2023-07-20T04:36:02;1015.8;;;21.2;54.7
74435;BME280;62867;52.038;29.256;2023-07-20T04:40:08;1015.8;;;21.4;54
74435;BME280;62867;52.038;29.256;2023-07-20T04:45:08;1015.8;;;21.6;53.9
74435;BME280;62867;52.038;29.256;2023-07-20T04:50:48;1015.8;;;22;53.9
74435;BME280;62867;52.038;29.256;2023-07-20T04:55:56;1015.8;;;22.3;53.4
74435;BME280;62867;52.038;29.256;2023-07-20T05:00:26;1015.8;;;22.3;53.3
74435;BME280;62867;52.038;29.256;2023-07-20T05:05:08;1015.8;;;22.6;51.5
74435;BME280;62867;52.038;29.256;2023-07-20T05:11:00;1015.9;;;23.1;49.9
74435;BME280;62867;52.038;29.256;2023-07-20T05:16:00;1016;;;23.2;50.2
74435;BME280;62867;52.038;29.256;2023-07-20T05:20:26;1015.9;;;23.1;50.7
74435;BME280;62867;52.038;29.256;2023-07-20T05:25:08;1015.9;;;23.2;51.2
74435;BME280;62867;52.038;29.256;2023-07-20T05:30:48;1015.9;;;23.3;50.8
74435;BME280;62867;52.038;29.256;2023-07-20T05:35:08;1015.9;;;23.4;50.5
74435;BME280;62867;52.038;29.256;2023-07-20T05:40:08;1015.8;;;23.7;49.2
74435;BME280;62867;52.038;29.256;2023-07-20T05:45:42;1015.7;;;24;48.2
74435;BME280;62867;52.038;29.256;2023-07-20T05:50:34;1015.6;;;24.3;46.7
74435;BME280;62867;52.038;29.256;2023-07-20T05:55:51;1015.5;;;24.5;46.6
74435;BME280;62867;52.038;29.256;2023-07-20T06:00:08;1015.4;;;24.8;46.3
74435;BME280;62867;52.038;29.256;2023-07-20T06:06:02;1015.3;;;25;46
74435;BME280;62867;52.038;29.256;2023-07-20T06:10:30;1015.2;;;25.3;45.4
74435;BME280;62867;52.038;29.256;2023-07-20T06:16:02;1015.2;;;25.5;44.7
74435;BME280;62867;52.038;29.256;2023-07-20T06:20:42;1015.2;;;25.7;43.8
74435;BME280;62867;52.038;29.256;2023-07-20T06:25:48;1015.2;;;25.8;43
74435;BME280;62867;52.038;29.256;2023-07-20T06:30:26;1015.1;;;26;42.4
74435;BME280;62867;52.038;29.256;2023-07-20T06:35:42;1015.1;;;26.2;42.2
74435;BME280;62867;52.038;29.256;2023-07-20T06:40:28;1015;;;26.4;41.3
74435;BME280;62867;52.038;29.256;2023-07-20T06:45:50;1015;;;26.6;41
74435;BME280;62867;52.038;29.256;2023-07-20T06:51:02;1015;;;26.8;40.3
74435;BME280;62867;52.038;29.256;2023-07-20T06:55:26;1014.9;;;27;40.1
74435;BME280;62867;52.038;29.256;2023-07-20T07:01:04;1014.9;;;27.3;39.8
74435;BME280;62867;52.038;29.256;2023-07-20T07:06:02;1014.9;;;27.4;39.4
74435;BME280;62867;52.038;29.256;2023-07-20T07:11:02;1014.9;;;27.7;39.9
74435;BME280;62867;52.038;29.256;2023-07-20T07:15:08;1014.9;;;27.9;39.3
74435;BME280;62867;52.038;29.256;2023-07-20T07:20:20;1014.9;;;28;38.6
74435;BME280;62867;52.038;29.256;2023-07-20T07:25:46;1014.9;;;28.2;38.4
74435;BME280;62867;52.038;29.256;2023-07-20T07:30:46;1014.7;;;28.6;38
74435;BME280;62867;52.038;29.256;2023-07-20T07:35:14;1014.7;;;29;37.8
74435;BME280;62867;52.038;29.256;2023-07-20T07:40:28;1014.8;;;29.2;37.7
74435;BME280;62867;52.038;29.256;2023-07-20T07:45:14;1014.8;;;29.2;38
74435;BME280;62867;52.038;29.256;2023-07-20T07:50:08;1014.8;;;29.4;38.3
74435;BME280;62867;52.038;29.256;2023-07-20T07:55:08;1014.7;;;29.6;37.4
74435;BME280;62867;52.038;29.256;2023-07-20T08:01:02;1014.6;;;29.4;37.1
74435;BME280;62867;52.038;29.256;2023-07-20T08:05:20;1014.6;;;29.3;37.3
74435;BME280;62867;52.038;29.256;2023-07-20T08:11:02;1014.6;;;29.7;36.4
74435;BME280;62867;52.038;29.256;2023-07-20T08:15:28;1014.6;;;29.6;37.1
74435;BME280;62867;52.038;29.256;2023-07-20T08:20:28;1014.6;;;29.2;38.4
74435;BME280;62867;52.038;29.256;2023-07-20T08:25:08;1014.6;;;28.9;39.9
74435;BME280;62867;52.038;29.256;2023-07-20T08:30:26;1014.7;;;28.6;40.8
74435;BME280;62867;52.038;29.256;2023-07-20T08:35:48;1014.7;;;28.2;40.9
74435;BME280;62867;52.038;29.256;2023-07-20T08:40:48;1014.7;;;27.8;42.9
74435;BME280;62867;52.038;29.256;2023-07-20T08:46:02;1014.7;;;27.5;43.7
74435;BME280;62867;52.038;29.256;2023-07-20T08:50:42;1014.7;;;27.9;43.5
74435;BME280;62867;52.038;29.256;2023-07-20T08:55:28;1014.6;;;28.8;41
74435;BME280;62867;52.038;29.256;2023-07-20T09:01:02;1014.5;;;29.1;40
74435;BME280;62867;52.038;29.256;2023-07-20T09:05:42;1014.5;;;29.4;39.8
74435;BME280;62867;52.038;29.256;2023-07-20T09:10:30;1014.4;;;29.4;39.3
74435;BME280;62867;52.038;29.256;2023-07-20T09:15:30;1014.4;;;29.3;40.1
74435;BME280;62867;52.038;29.256;2023-07-20T09:21:01;1014.3;;;29.6;39.5
74435;BME280;62867;52.038;29.256;2023-07-20T09:25:15;1014.3;;;30;38
74435;BME280;62867;52.038;29.256;2023-07-20T09:30:08;1014.3;;;30.4;37
74435;BME280;62867;52.038;29.256;2023-07-20T09:36:01;1014.2;;;30.7;37
74435;BME280;62867;52.038;29.256;2023-07-20T09:40:44;1014.2;;;30.5;37.4
74435;BME280;62867;52.038;29.256;2023-07-20T09:45:44;1014.1;;;30.6;38.1
74435;BME280;62867;52.038;29.256;2023-07-20T09:50:26;1014.1;;;31;37.3
74435;BME280;62867;52.038;29.256;2023-07-20T09:55:58;1014;;;31.6;36.8
74435;BME280;62867;52.038;29.256;2023-07-20T10:00:40;1014;;;32.2;36.5
74435;BME280;62867;52.038;29.256;2023-07-20T10:05:14;1013.8;;;32.6;35
74435;BME280;62867;52.038;29.256;2023-07-20T10:10:42;1013.8;;;33.1;34.9
74435;BME280;62867;52.038;29.256;2023-07-20T10:15:50;1013.7;;;33.4;33.4
74435;BME280;62867;52.038;29.256;2023-07-20T10:21:02;1013.7;;;33.8;32.9
74435;BME280;62867;52.038;29.256;2023-07-20T10:25:08;1013.6;;;34;31.9
74435;BME280;62867;52.038;29.256;2023-07-20T10:30:48;1013.5;;;34.2;30.8
74435;BME280;62867;52.038;29.256;2023-07-20T10:35:50;1013.5;;;34.4;30.2
74435;BME280;62867;52.038;29.256;2023-07-20T10:41:02;1013.4;;;34.6;29.5
74435;BME280;62867;52.038;29.256;2023-07-20T10:45:45;1013.4;;;34.7;29.3
74435;BME280;62867;52.038;29.256;2023-07-20T10:51:11;1013.3;;;34.9;30.3
74435;BME280;62867;52.038;29.256;2023-07-20T10:55:10;1013.3;;;34.4;31.9
74435;BME280;62867;52.038;29.256;2023-07-20T11:00:58;1013.1;;;34.4;30.5
74435;BME280;62867;52.038;29.256;2023-07-20T11:05:31;1013.1;;;34.4;30.8
74435;BME280;62867;52.038;29.256;2023-07-20T11:10:14;1013;;;34.5;29.6
74435;BME280;62867;52.038;29.256;2023-07-20T11:16:03;1013;;;34.7;30.3
74435;BME280;62867;52.038;29.256;2023-07-20T11:20:28;1012.9;;;35;31.7
74435;BME280;62867;52.038;29.256;2023-07-20T11:25:35;1012.8;;;35;32.1
74435;BME280;62867;52.038;29.256;2023-07-20T11:31:02;1012.9;;;34.3;32.6
74435;BME280;62867;52.038;29.256;2023-07-20T11:36:02;1012.9;;;33.4;32.1
74435;BME280;62867;52.038;29.256;2023-07-20T11:40:46;1012.8;;;32.7;32.8
74435;BME280;62867;52.038;29.256;2023-07-20T11:45:26;1012.7;;;32.1;34.7
74435;BME280;62867;52.038;29.256;2023-07-20T11:50:46;1012.7;;;31.4;36.1
74435;BME280;62867;52.038;29.256;2023-07-20T11:55:46;1012.7;;;30.7;36.3
74435;BME280;62867;52.038;29.256;2023-07-20T12:00:32;1012.8;;;30.1;37
74435;BME280;62867;52.038;29.256;2023-07-20T12:05:08;1012.7;;;29.7;37.9
74435;BME280;62867;52.038;29.256;2023-07-20T12:10:48;1012.7;;;29.3;40
74435;BME280;62867;52.038;29.256;2023-07-20T12:15:13;1012.6;;;28.7;41.6
74435;BME280;62867;52.038;29.256;2023-07-20T12:20:24;1012.6;;;28.2;43
74435;BME280;62867;52.038;29.256;2023-07-20T12:26:02;1012.5;;;27.7;42.1
74435;BME280;62867;52.038;29.256;2023-07-20T12:30:46;1012.5;;;27.2;44.2
74435;BME280;62867;52.038;29.256;2023-07-20T12:36:00;1012.5;;;26.8;45.7
74435;BME280;62867;52.038;29.256;2023-07-20T12:40:28;1012.6;;;26.4;47.3
74435;BME280;62867;52.038;29.256;2023-07-20T12:45:22;1012.7;;;26.1;48.3
74435;BME280;62867;52.038;29.256;2023-07-20T12:50:08;1012.7;;;25.8;49.5
74435;BME280;62867;52.038;29.256;2023-07-20T12:55:26;1012.9;;;25.4;49.9
74435;BME280;62867;52.038;29.256;2023-07-20T13:00:32;1013.3;;;24.9;50.8
74435;BME280;62867;52.038;29.256;2023-07-20T13:05:48;1013.6;;;24.4;52
74435;BME280;62867;52.038;29.256;2023-07-20T13:11:03;1013.7;;;24;53.9
74435;BME280;62867;52.038;29.256;2023-07-20T13:15:43;1013.8;;;23.7;55.3
74435;BME280;62867;52.038;29.256;2023-07-20T13:20:09;1013.9;;;23.3;57.3
74435;BME280;62867;52.038;29.256;2023-07-20T13:26:02;1014.1;;;23.1;57.8
74435;BME280;62867;52.038;29.256;2023-07-20T13:30:14;1014.2;;;22.9;58.5
74435;BME280;62867;52.038;29.256;2023-07-20T13:35:08;1014.1;;;22.6;60.2
74435;BME280;62867;52.038;29.256;2023-07-20T13:40:28;1014.1;;;22.4;60.8
74435;BME280;62867;52.038;29.256;2023-07-20T13:45:48;1014.3;;;22.2;60.5
74435;BME280;62867;52.038;29.256;2023-07-20T13:50:14;1014.7;;;22.1;60.7
74435;BME280;62867;52.038;29.256;2023-07-20T13:55:48;1015.2;;;22;60.6
74435;BME280;62867;52.038;29.256;2023-07-20T14:01:02;1015.4;;;21.7;60.6
74435;BME280;62867;52.038;29.256;2023-07-20T14:06:03;1015.4;;;21.5;61
74435;BME280;62867;52.038;29.256;2023-07-20T14:10:32;1015.2;;;21.3;61.7
74435;BME280;62867;52.038;29.256;2023-07-20T14:15:28;1015.3;;;21.2;62.5
74435;BME280;62867;52.038;29.256;2023-07-20T14:21:02;1015.5;;;21;62.6
74435;BME280;62867;52.038;29.256;2023-07-20T14:25:28;1015.5;;;20.9;62.7
74435;BME280;62867;52.038;29.256;2023-07-20T14:30:22;1015.5;;;20.8;63.4
74435;BME280;62867;52.038;29.256;2023-07-20T14:35:42;1015.4;;;20.8;64.2
74435;BME280;62867;52.038;29.256;2023-07-20T14:40:48;1015.1;;;20.8;64.1
74435;BME280;62867;52.038;29.256;2023-07-20T14:46:02;1014.9;;;20.8;63.6
74435;BME280;62867;52.038;29.256;2023-07-20T14:50:08;1015;;;20.7;63.6
74435;BME280;62867;52.038;29.256;2023-07-20T14:56:02;1015.1;;;20.7;63.5
74435;BME280;62867;52.038;29.256;2023-07-20T15:00:46;1015;;;20.6;63.5
74435;BME280;62867;52.038;29.256;2023-07-20T15:06:02;1014.9;;;20.5;64.2
74435;BME280;62867;52.038;29.256;2023-07-20T15:10:46;1014.8;;;20.4;64.5
74435;BME280;62867;52.038;29.256;2023-07-20T15:16:02;1015;;;20.3;64.3
74435;BME280;62867;52.038;29.256;2023-07-20T15:21:02;1014.9;;;20.3;64.7
74435;BME280;62867;52.038;29.256;2023-07-20T15:25:30;1014.8;;;20.2;65
74435;BME280;62867;52.038;29.256;2023-07-20T15:30:14;1014.7;;;20.2;65.6
74435;BME280;62867;52.038;29.256;2023-07-20T15:35:08;1014.6;;;20.2;65.6
74435;BME280;62867;52.038;29.256;2023-07-20T15:41:00;1014.5;;;20.3;65.6
74435;BME280;62867;52.038;29.256;2023-07-20T15:45:47;1014.5;;;20.4;65.3
74435;BME280;62867;52.038;29.256;2023-07-20T15:50:48;1014.3;;;20.5;65.2
74435;BME280;62867;52.038;29.256;2023-07-20T15:56:02;1014.2;;;20.6;64.7
74435;BME280;62867;52.038;29.256;2023-07-20T16:01:00;1014.2;;;20.6;64.4
74435;BME280;62867;52.038;29.256;2023-07-20T16:05:46;1014.2;;;20.5;64.6
74435;BME280;62867;52.038;29.256;2023-07-20T16:10:46;1014.1;;;20.4;65
74435;BME280;62867;52.038;29.256;2023-07-20T16:15:46;1014.1;;;20.4;65.3
74435;BME280;62867;52.038;29.256;2023-07-20T16:20:46;1014;;;20.5;65.4
74435;BME280;62867;52.038;29.256;2023-07-20T16:25:32;1014;;;20.5;65.2
74435;BME280;62867;52.038;29.256;2023-07-20T16:30:08;1014;;;20.5;65.3
74435;BME280;62867;52.038;29.256;2023-07-20T16:35:35;1014;;;20.5;65
74435;BME280;62867;52.038;29.256;2023-07-20T16:40:26;1014;;;20.5;65.4
74435;BME280;62867;52.038;29.256;2023-07-20T16:45:24;1013.9;;;20.5;65.1
74435;BME280;62867;52.038;29.256;2023-07-20T16:51:03;1013.9;;;20.4;65.1
74435;BME280;62867;52.038;29.256;2023-07-20T16:55:47;1013.9;;;20.4;65.3
74435;BME280;62867;52.038;29.256;2023-07-20T17:01:01;1013.9;;;20.3;65.4
74435;BME280;62867;52.038;29.256;2023-07-20T17:05:14;1013.9;;;20.3;65.5
74435;BME280;62867;52.038;29.256;2023-07-20T17:10:28;1014;;;20.2;65.9
74435;BME280;62867;52.038;29.256;2023-07-20T17:15:20;1014;;;20.2;65.9
74435;BME280;62867;52.038;29.256;2023-07-20T17:20:26;1014.1;;;20.1;66.2
74435;BME280;62867;52.038;29.256;2023-07-20T17:25:14;1014.1;;;20;66.2
74435;BME280;62867;52.038;29.256;2023-07-20T17:30:34;1014.1;;;20;66.5
74435;BME280;62867;52.038;29.256;2023-07-20T17:36:02;1014.2;;;20;66.7
74435;BME280;62867;52.038;29.256;2023-07-20T17:40:22;1014.3;;;20;66.5
74435;BME280;62867;52.038;29.256;2023-07-20T17:45:08;1014.3;;;19.9;66.4
74435;BME280;62867;52.038;29.256;2023-07-20T17:51:02;1014.4;;;19.8;66.6
74435;BME280;62867;52.038;29.256;2023-07-20T17:55:43;1014.4;;;19.8;66.7
74435;BME280;62867;52.038;29.256;2023-07-20T18:00:32;1014.4;;;19.8;66.8
74435;BME280;62867;52.038;29.256;2023-07-20T18:05:48;1014.5;;;19.7;66.9
74435;BME280;62867;52.038;29.256;2023-07-20T18:10:48;1014.4;;;19.7;67.1
74435;BME280;62867;52.038;29.256;2023-07-20T18:15:08;1014.5;;;19.6;67.4
74435;BME280;62867;52.038;29.256;2023-07-20T18:20:22;1014.6;;;19.6;67.6
74435;BME280;62867;52.038;29.256;2023-07-20T18:26:02;1014.6;;;19.5;67.7
74435;BME280;62867;52.038;29.256;2023-07-20T18:31:04;1014.7;;;19.5;67.8
74435;BME280;62867;52.038;29.256;2023-07-20T18:35:27;1014.8;;;19.5;68
74435;BME280;62867;52.038;29.256;2023-07-20T18:40:23;1014.9;;;19.5;68.2
74435;BME280;62867;52.038;29.256;2023-07-20T18:46:02;1014.9;;;19.5;68.1
74435;BME280;62867;52.038;29.256;2023-07-20T18:50:08;1015;;;19.5;68
74435;BME280;62867;52.038;29.256;2023-07-20T18:56:02;1015.1;;;19.6;68.1
74435;BME280;62867;52.038;29.256;2023-07-20T19:00:42;1015;;;19.6;68.2
74435;BME280;62867;52.038;29.256;2023-07-20T19:05:49;1015;;;19.5;68.2
74435;BME280;62867;52.038;29.256;2023-07-20T19:10:28;1015;;;19.5;68.2
74435;BME280;62867;52.038;29.256;2023-07-20T19:15:46;1015.1;;;19.4;68.1
74435;BME280;62867;52.038;29.256;2023-07-20T19:20:28;1015.2;;;19.4;68.3
74435;BME280;62867;52.038;29.256;2023-07-20T19:25:14;1015.2;;;19.3;68.8
74435;BME280;62867;52.038;29.256;2023-07-20T19:31:02;1015.2;;;19.4;68.9
74435;BME280;62867;52.038;29.256;2023-07-20T19:35:14;1015.2;;;19.4;68.8
74435;BME280;62867;52.038;29.256;2023-07-20T19:41:02;1015.2;;;19.4;68.7
74435;BME280;62867;52.038;29.256;2023-07-20T19:46:02;1015.2;;;19.4;68.6
74435;BME280;62867;52.038;29.256;2023-07-20T19:50:43;1015.2;;;19.4;68.7
74435;BME280;62867;52.038;29.256;2023-07-20T19:55:20;1015.3;;;19.4;68.7
74435;BME280;62867;52.038;29.256;2023-07-20T20:00:26;1015.2;;;19.4;68.6
74435;BME280;62867;52.038;29.256;2023-07-20T20:05:44;1015.2;;;19.3;68.5
74435;BME280;62867;52.038;29.256;2023-07-20T20:10:47;1015.3;;;19.3;68.6
74435;BME280;62867;52.038;29.256;2023-07-20T20:15:14;1015.3;;;19.3;68.7
74435;BME280;62867;52.038;29.256;2023-07-20T20:21:02;1015.3;;;19.3;69
74435;BME280;62867;52.038;29.256;2023-07-20T20:26:02;1015.3;;;19.3;69.2
74435;BME280;62867;52.038;29.256;2023-07-20T20:30:09;1015.3;;;19.3;69.3
74435;BME280;62867;52.038;29.256;2023-07-20T20:35:46;1015.3;;;19.3;69.2
74435;BME280;62867;52.038;29.256;2023-07-20T20:40:47;1015.4;;;19.3;69.1
74435;BME280;62867;52.038;29.256;2023-07-20T20:45:46;1015.4;;;19.3;68.9
74435;BME280;62867;52.038;29.256;2023-07-20T20:50:26;1015.5;;;19.3;69
74435;BME280;62867;52.038;29.256;2023-07-20T20:55:28;1015.5;;;19.3;68.9
74435;BME280;62867;52.038;29.256;2023-07-20T21:00:14;1015.5;;;19.3;69
74435;BME280;62867;52.038;29.256;2023-07-20T21:05:08;1015.5;;;19.3;68.9
74435;BME280;62867;52.038;29.256;2023-07-20T21:10:08;1015.5;;;19.3;69
74435;BME280;62867;52.038;29.256;2023-07-20T21:16:02;1015.5;;;19.2;69.2
74435;BME280;62867;52.038;29.256;2023-07-20T21:20:46;1015.5;;;19.2;69.2
74435;BME280;62867;52.038;29.256;2023-07-20T21:26:02;1015.5;;;19.2;69.6
74435;BME280;62867;52.038;29.256;2023-07-20T21:30:14;1015.5;;;19.3;69.5
74435;BME280;62867;52.038;29.256;2023-07-20T21:35:28;1015.5;;;19.3;69.4
74435;BME280;62867;52.038;29.256;2023-07-20T21:40:08;1015.6;;;19.2;69.3
74435;BME280;62867;52.038;29.256;2023-07-20T21:45:43;1015.7;;;19.2;69.3
74435;BME280;62867;52.038;29.256;2023-07-20T21:50:15;1015.7;;;19.2;69.2
74435;BME280;62867;52.038;29.256;2023-07-20T21:55:48;1015.7;;;19.2;69.2
74435;BME280;62867;52.038;29.256;2023-07-20T22:00:48;1015.8;;;19.1;69.1
74435;BME280;62867;52.038;29.256;2023-07-20T22:05:28;1015.8;;;19.1;69.3
74435;BME280;62867;52.038;29.256;2023-07-20T22:10:23;1015.8;;;19.1;69.4
74435;BME280;62867;52.038;29.256;2023-07-20T22:16:03;1015.9;;;19.1;69.4
74435;BME280;62867;52.038;29.256;2023-07-20T22:20:20;1015.9;;;19.1;69.6
74435;BME280;62867;52.038;29.256;2023-07-20T22:25:08;1015.9;;;19.1;69.8
74435;BME280;62867;52.038;29.256;2023-07-20T22:30:48;1016;;;19.1;69.9
74435;BME280;62867;52.038;29.256;2023-07-20T22:35:48;1016;;;19.1;69.8
74435;BME280;62867;52.038;29.256;2023-07-20T22:40:14;1016;;;19.1;69.8
74435;BME280;62867;52.038;29.256;2023-07-20T22:45:08;1016;;;19.1;69.6
74435;BME280;62867;52.038;29.256;2023-07-20T22:50:42;1016.1;;;19.1;69.5
74435;BME280;62867;52.038;29.256;2023-07-20T22:55:48;1016.1;;;19.1;69.4
74435;BME280;62867;52.038;29.256;2023-07-20T23:01:07;1016.1;;;19;69.4
74435;BME280;62867;52.038;29.256;2023-07-20T23:05:28;1016.1;;;19;69.4
74435;BME280;62867;52.038;29.256;2023-07-20T23:11:02;1016;;;18.9;69.4
74435;BME280;62867;52.038;29.256;2023-07-20T23:15:26;1016.1;;;18.8;69.5
74435;BME280;62867;52.038;29.256;2023-07-20T23:21:02;1016.1;;;18.7;69.8
74435;BME280;62867;52.038;29.256;2023-07-20T23:25:42;1016;;;18.8;70.1
74435;BME280;62867;52.038;29.256;2023-07-20T23:30:49;1016;;;18.8;70
74435;BME280;62867;52.038;29.256;2023-07-20T23:35:22;1016;;;18.8;70.1
74435;BME280;62867;52.038;29.256;2023-07-20T23:40:42;1016;;;18.8;70
74435;BME280;62867;52.038;29.256;2023-07-20T23:45:28;1016;;;18.8;70.1
74435;BME280;62867;52.038;29.256;2023-07-20T23:50:32;1016;;;18.8;70
74435;BME280;62867;52.038;29.256;2023-07-20T23:55:46;1016.1;;;18.8;69.9
